createdAt,value
2018-06-01T00:01:32.820Z,94.80
2018-06-01T00:04:00.604Z,94.80
2018-06-01T00:06:28.344Z,94.90
2018-06-01T00:08:56.128Z,94.90
2018-06-01T00:11:23.926Z,95.00
2018-06-01T00:13:52.468Z,95.00
2018-06-01T00:16:20.205Z,94.90
2018-06-01T00:18:47.969Z,94.90
2018-06-01T00:21:16.525Z,94.90
2018-06-01T00:23:45.046Z,95.10
2018-06-01T00:26:12.872Z,95.10
2018-06-01T00:28:41.447Z,95.20
2018-06-01T00:31:10.011Z,95.10
2018-06-01T00:33:37.870Z,95.10
2018-06-01T00:36:05.682Z,95.10
2018-06-01T00:38:33.478Z,95.00
2018-06-01T00:41:01.316Z,95.00
2018-06-01T00:43:29.128Z,94.90
2018-06-01T00:45:56.977Z,94.80
2018-06-01T00:48:24.829Z,94.60
2018-06-01T00:50:52.624Z,94.60
2018-06-01T00:53:20.411Z,94.40
2018-06-01T00:55:49.024Z,93.80
2018-06-01T00:58:16.844Z,93.80
2018-06-01T01:00:45.434Z,93.20
2018-06-01T01:03:13.260Z,93.20
2018-06-01T01:05:41.061Z,93.00
2018-06-01T01:08:08.883Z,93.00
2018-06-01T01:10:36.731Z,93.10
2018-06-01T01:13:04.586Z,93.10
2018-06-01T01:15:32.395Z,93.10
2018-06-01T01:18:00.210Z,93.10
2018-06-01T01:20:28.862Z,93.30
2018-06-01T01:22:56.681Z,93.30
2018-06-01T01:25:24.539Z,93.40
2018-06-01T01:27:52.377Z,93.90
2018-06-01T01:30:20.170Z,93.70
2018-06-01T01:32:48.031Z,93.80
2018-06-01T01:35:16.672Z,93.90
2018-06-01T01:37:44.466Z,93.90
2018-06-01T01:40:13.076Z,94.10
2018-06-01T01:42:40.911Z,94.10
2018-06-01T01:45:09.475Z,94.50
2018-06-01T01:47:37.325Z,94.40
2018-06-01T01:50:05.193Z,94.50
2018-06-01T01:52:33.010Z,94.80
2018-06-01T01:55:01.595Z,95.20
2018-06-01T01:57:30.225Z,95.30
2018-06-01T01:59:58.027Z,95.40
2018-06-01T02:02:26.645Z,95.30
2018-06-01T02:04:54.448Z,95.20
2018-06-01T02:07:22.264Z,95.20
2018-06-01T02:09:50.097Z,95.10
2018-06-01T02:12:17.898Z,95.00
2018-06-01T02:14:45.728Z,94.90
2018-06-01T02:17:13.567Z,94.90
2018-06-01T02:19:41.364Z,95.10
2018-06-01T02:22:09.153Z,94.90
2018-06-01T02:24:37.044Z,94.90
2018-06-01T02:27:05.670Z,94.90
2018-06-01T02:29:33.455Z,94.90
2018-06-01T02:32:02.059Z,94.80
2018-06-01T02:34:29.899Z,94.80
2018-06-01T02:36:58.453Z,94.70
2018-06-01T02:39:26.344Z,94.70
2018-06-01T02:41:54.901Z,95.00
2018-06-01T02:44:22.704Z,95.00
2018-06-01T02:46:51.328Z,95.00
2018-06-01T02:49:19.126Z,95.00
2018-06-01T02:51:47.058Z,95.10
2018-06-01T02:54:14.872Z,95.30
2018-06-01T02:56:42.686Z,95.70
2018-06-01T02:59:10.485Z,95.80
2018-06-01T03:01:38.307Z,96.10
2018-06-01T03:04:06.118Z,96.30
2018-06-01T03:09:33.113Z,96.90
2018-06-01T03:12:01.769Z,97.10
2018-06-01T03:14:29.586Z,97.10
2018-06-01T03:16:57.407Z,97.10
2018-06-01T03:19:25.287Z,97.10
2018-06-01T03:21:53.872Z,96.90
2018-06-01T03:24:22.411Z,96.90
2018-06-01T03:26:50.303Z,96.90
2018-06-01T03:29:18.122Z,97.00
2018-06-01T03:31:45.972Z,97.20
2018-06-01T03:34:13.856Z,97.30
2018-06-01T03:36:41.650Z,97.50
2018-06-01T03:39:09.477Z,97.70
2018-06-01T03:41:37.283Z,97.70
2018-06-01T03:44:05.180Z,97.80
2018-06-01T03:46:33.748Z,97.90
2018-06-01T03:49:01.556Z,97.90
2018-06-01T03:51:29.378Z,98.00
2018-06-01T03:53:57.170Z,98.00
2018-06-01T03:56:25.769Z,98.10
2018-06-01T03:58:53.554Z,98.10
2018-06-01T04:01:21.364Z,98.20
2018-06-01T04:03:49.977Z,98.30
2018-06-01T04:06:17.780Z,98.30
2018-06-01T04:08:45.649Z,98.30
2018-06-01T04:11:13.501Z,98.50
2018-06-01T04:13:41.310Z,98.50
2018-06-01T04:16:09.866Z,98.70
2018-06-01T04:18:37.699Z,98.70
2018-06-01T04:21:05.603Z,98.80
2018-06-01T04:23:33.391Z,98.80
2018-06-01T04:26:01.200Z,98.70
2018-06-01T04:28:28.981Z,98.70
2018-06-01T04:30:56.799Z,98.70
2018-06-01T04:33:25.428Z,98.40
2018-06-01T04:35:53.207Z,98.40
2018-06-01T04:38:21.044Z,98.20
2018-06-01T04:40:48.869Z,98.00
2018-06-01T04:43:17.410Z,97.40
2018-06-01T04:45:45.257Z,97.30
2018-06-01T04:48:13.122Z,97.00
2018-06-01T04:50:40.905Z,96.70
2018-06-01T04:53:08.710Z,96.60
2018-06-01T04:55:37.358Z,95.90
2018-06-01T04:58:05.182Z,95.80
2018-06-01T05:00:32.958Z,95.60
2018-06-01T05:03:00.767Z,95.10
2018-06-01T05:05:28.597Z,94.40
2018-06-01T05:07:56.420Z,94.00
2018-06-01T05:10:25.011Z,93.50
2018-06-01T05:12:53.668Z,93.20
2018-06-01T05:15:21.484Z,93.20
2018-06-01T05:17:49.307Z,93.00
2018-06-01T05:20:17.106Z,92.80
2018-06-01T05:22:44.921Z,92.50
2018-06-01T05:25:12.736Z,92.00
2018-06-01T05:27:41.308Z,90.90
2018-06-01T05:30:09.843Z,90.70
2018-06-01T05:32:37.688Z,90.60
2018-06-01T05:35:05.866Z,90.50
2018-06-01T05:37:33.739Z,90.50
2018-06-01T05:40:01.562Z,90.70
2018-06-01T05:42:30.121Z,90.20
2018-06-01T05:44:57.930Z,90.20
2018-06-01T05:47:25.818Z,90.00
2018-06-01T05:49:53.613Z,89.80
2018-06-01T05:52:21.424Z,89.50
2018-06-01T05:54:49.236Z,89.10
2018-06-01T05:57:17.028Z,88.60
2018-06-01T05:59:45.595Z,87.20
2018-06-01T06:02:13.436Z,87.10
2018-06-01T06:04:41.292Z,86.50
2018-06-01T06:07:09.122Z,85.40
2018-06-01T06:09:37.725Z,81.40
2018-06-01T06:12:05.530Z,81.30
2018-06-01T06:14:33.314Z,79.80
2018-06-01T06:17:01.104Z,78.60
2018-06-01T06:19:28.891Z,77.20
2018-06-01T06:21:56.677Z,76.90
2018-06-01T06:24:24.521Z,77.10
2018-06-01T06:26:52.331Z,76.50
2018-06-01T06:29:20.127Z,75.10
2018-06-01T06:31:48.061Z,74.40
2018-06-01T06:34:15.997Z,74.30
2018-06-01T06:36:43.997Z,70.60
2018-06-01T06:39:11.961Z,68.50
2018-06-01T06:41:39.775Z,69.00
2018-06-01T06:44:07.737Z,68.90
2018-06-01T06:46:35.568Z,67.80
2018-06-01T06:49:03.393Z,67.40
2018-06-01T06:51:31.211Z,67.20
2018-06-01T06:53:59.764Z,65.70
2018-06-01T06:56:27.562Z,65.60
2018-06-01T06:58:56.164Z,63.40
2018-06-01T07:01:23.976Z,63.40
2018-06-01T07:03:51.809Z,62.70
2018-06-01T07:06:19.638Z,63.00
2018-06-01T07:08:48.203Z,61.30
2018-06-01T07:11:15.976Z,61.20
2018-06-01T07:13:43.796Z,61.90
2018-06-01T07:16:11.610Z,61.60
2018-06-01T07:18:39.398Z,60.70
2018-06-01T07:21:07.233Z,62.70
2018-06-01T07:23:35.075Z,64.70
2018-06-01T07:26:02.867Z,65.40
2018-06-01T07:28:30.715Z,65.80
2018-06-01T07:30:58.519Z,67.80
2018-06-01T07:33:27.069Z,69.50
2018-06-01T07:35:54.910Z,69.50
2018-06-01T07:38:22.722Z,69.60
2018-06-01T07:40:51.300Z,70.30
2018-06-01T07:43:19.876Z,72.20
2018-06-01T07:45:47.670Z,72.20
2018-06-01T07:48:15.478Z,74.60
2018-06-01T07:50:43.291Z,76.90
2018-06-01T07:53:11.898Z,79.80
2018-06-01T07:55:39.716Z,79.70
2018-06-01T07:58:07.492Z,80.10
2018-06-01T08:00:36.116Z,81.00
2018-06-01T08:03:03.951Z,80.90
2018-06-01T08:05:32.484Z,80.00
2018-06-01T08:08:00.296Z,80.00
2018-06-01T08:10:28.924Z,79.50
2018-06-01T08:12:56.712Z,79.50
2018-06-01T08:15:24.565Z,79.80
2018-06-01T08:17:52.404Z,80.50
2018-06-01T08:20:20.195Z,80.90
2018-06-01T08:22:47.978Z,81.50
2018-06-01T08:25:15.876Z,82.10
2018-06-01T08:27:44.488Z,82.10
2018-06-01T08:30:12.287Z,82.10
2018-06-01T08:32:40.112Z,81.70
2018-06-01T08:35:07.921Z,82.10
2018-06-01T08:37:35.747Z,82.30
2018-06-01T08:40:03.646Z,82.20
2018-06-01T08:42:31.433Z,82.00
2018-06-01T08:44:59.280Z,82.30
2018-06-01T08:47:27.103Z,82.20
2018-06-01T08:49:55.292Z,82.00
2018-06-01T08:52:23.124Z,81.00
2018-06-01T08:54:50.938Z,81.50
2018-06-01T08:57:18.744Z,83.70
2018-06-01T08:59:47.283Z,85.30
2018-06-01T09:02:15.112Z,85.20
2018-06-01T09:04:42.891Z,86.50
2018-06-01T09:07:10.663Z,87.50
2018-06-01T09:09:38.469Z,88.00
2018-06-01T09:12:06.311Z,88.30
2018-06-01T09:14:34.101Z,89.50
2018-06-01T09:17:01.929Z,89.30
2018-06-01T09:19:29.728Z,90.00
2018-06-01T09:21:58.332Z,90.40
2018-06-01T09:24:26.913Z,90.90
2018-06-01T09:26:55.512Z,91.10
2018-06-01T09:29:24.112Z,91.10
2018-06-01T09:31:51.909Z,91.30
2018-06-01T09:34:19.695Z,90.70
2018-06-01T09:36:47.541Z,91.00
2018-06-01T09:39:15.354Z,91.40
2018-06-01T09:41:43.936Z,91.20
2018-06-01T09:44:12.539Z,91.10
2018-06-01T09:46:40.421Z,91.10
2018-06-01T09:49:08.627Z,90.70
2018-06-01T09:51:36.656Z,91.00
2018-06-01T09:54:04.495Z,90.90
2018-06-01T09:56:33.108Z,91.00
2018-06-01T09:59:00.915Z,91.00
2018-06-01T10:01:28.720Z,90.70
2018-06-01T10:03:56.530Z,90.90
2018-06-01T10:06:24.372Z,91.00
2018-06-01T10:08:52.175Z,91.30
2018-06-01T10:11:19.997Z,91.20
2018-06-01T10:13:47.796Z,91.10
2018-06-01T10:16:15.610Z,90.90
2018-06-01T10:18:43.443Z,90.80
2018-06-01T10:21:12.026Z,89.90
2018-06-01T10:23:39.855Z,89.90
2018-06-01T10:26:07.652Z,88.30
2018-06-01T10:28:35.503Z,87.30
2018-06-01T10:31:03.318Z,85.70
2018-06-01T10:33:31.122Z,84.90
2018-06-01T10:35:58.932Z,83.70
2018-06-01T10:38:27.476Z,82.70
2018-06-01T10:40:55.309Z,82.70
2018-06-01T10:43:23.188Z,81.20
2018-06-01T10:45:51.000Z,80.70
2018-06-01T10:48:18.783Z,81.30
2018-06-01T10:50:47.344Z,81.80
2018-06-01T10:53:15.382Z,81.80
2018-06-01T10:55:43.983Z,77.30
2018-06-01T10:58:11.810Z,77.30
2018-06-01T11:00:39.635Z,77.60
2018-06-01T11:03:08.213Z,80.40
2018-06-01T11:05:36.056Z,80.40
2018-06-01T11:08:03.931Z,83.20
2018-06-01T11:10:31.723Z,84.80
2018-06-01T11:13:00.263Z,87.60
2018-06-01T11:15:28.074Z,87.10
2018-06-01T11:17:57.103Z,88.30
2018-06-01T11:20:24.946Z,88.30
2018-06-01T11:22:52.809Z,88.20
2018-06-01T11:25:20.607Z,88.50
2018-06-01T11:27:48.405Z,88.40
2018-06-01T11:30:16.204Z,88.70
2018-06-01T11:32:44.801Z,89.60
2018-06-01T11:35:13.345Z,88.20
2018-06-01T11:37:41.187Z,88.70
2018-06-01T11:40:08.976Z,88.80
2018-06-01T11:42:36.760Z,87.80
2018-06-01T11:45:05.375Z,86.10
2018-06-01T11:47:33.197Z,86.10
2018-06-01T11:50:02.382Z,86.60
2018-06-01T11:52:30.263Z,86.60
2018-06-01T11:54:58.818Z,88.00
2018-06-01T11:57:26.722Z,88.00
2018-06-01T11:59:55.284Z,89.70
2018-06-01T12:02:23.066Z,89.80
2018-06-01T12:04:51.659Z,90.50
2018-06-01T12:07:19.448Z,90.50
2018-06-01T12:09:47.259Z,90.70
2018-06-01T12:12:15.110Z,90.30
2018-06-01T12:14:42.875Z,90.30
2018-06-01T12:17:10.693Z,89.80
2018-06-01T12:19:38.481Z,90.10
2018-06-01T12:22:06.263Z,90.30
2018-06-01T12:24:34.085Z,90.20
2018-06-01T12:27:01.893Z,90.00
2018-06-01T12:29:29.782Z,90.90
2018-06-01T12:31:57.566Z,91.50
2018-06-01T12:34:26.115Z,91.90
2018-06-01T12:36:54.707Z,92.30
2018-06-01T12:39:22.497Z,92.20
2018-06-01T12:41:51.165Z,92.70
2018-06-01T12:44:19.751Z,93.30
2018-06-01T12:46:48.325Z,93.50
2018-06-01T12:49:16.176Z,93.50
2018-06-01T12:51:43.959Z,93.70
2018-06-01T12:54:11.751Z,93.80
2018-06-01T12:56:40.328Z,94.10
2018-06-01T12:59:08.916Z,94.20
2018-06-01T13:01:36.791Z,94.30
2018-06-01T13:04:04.718Z,94.50
2018-06-01T13:06:32.506Z,94.50
2018-06-01T13:09:01.157Z,94.10
2018-06-01T13:11:28.961Z,94.10
2018-06-01T13:13:57.511Z,93.40
2018-06-01T13:16:26.279Z,93.30
2018-06-01T13:18:55.075Z,92.90
2018-06-01T13:21:22.908Z,92.70
2018-06-01T13:23:50.770Z,91.60
2018-06-01T13:26:20.605Z,91.80
2018-06-01T13:28:49.141Z,92.10
2018-06-01T13:31:18.895Z,91.80
2018-06-01T13:33:48.906Z,91.80
2018-06-01T13:36:19.511Z,91.70
2018-06-01T13:38:48.128Z,91.40
2018-06-01T13:41:15.932Z,91.40
2018-06-01T13:43:45.236Z,92.70
2018-06-01T13:46:16.042Z,93.40
2018-06-01T13:48:43.913Z,93.40
2018-06-01T13:51:11.736Z,94.10
2018-06-01T13:53:39.549Z,94.30
2018-06-01T13:56:07.414Z,94.40
2018-06-01T13:58:35.339Z,94.70
2018-06-01T14:01:03.189Z,94.60
2018-06-01T14:03:31.011Z,94.40
2018-06-01T14:05:58.820Z,94.50
2018-06-01T14:08:26.655Z,94.70
2018-06-01T14:10:54.465Z,95.00
2018-06-01T14:13:22.275Z,94.80
2018-06-01T14:15:50.093Z,94.70
2018-06-01T14:18:17.902Z,94.50
2018-06-01T14:20:45.742Z,94.20
2018-06-01T14:23:13.538Z,94.20
2018-06-01T14:25:42.433Z,94.50
2018-06-01T14:28:10.398Z,94.30
2018-06-01T14:30:38.200Z,93.90
2018-06-01T14:33:06.730Z,93.80
2018-06-01T14:35:34.561Z,93.80
2018-06-01T14:38:02.372Z,94.00
2018-06-01T14:40:30.247Z,94.10
2018-06-01T14:42:58.071Z,93.90
2018-06-01T14:45:30.957Z,94.30
2018-06-01T14:47:58.792Z,94.60
2018-06-01T14:50:26.628Z,94.70
2018-06-01T14:52:54.434Z,94.90
2018-06-01T14:55:22.285Z,94.80
2018-06-01T14:57:50.863Z,94.60
2018-06-01T15:00:19.473Z,94.60
2018-06-01T15:02:47.257Z,94.90
2018-06-01T15:05:15.035Z,94.70
2018-06-01T15:07:42.846Z,94.80
2018-06-01T15:10:13.291Z,94.80
2018-06-01T15:12:41.104Z,94.80
2018-06-01T15:15:08.948Z,94.90
2018-06-01T15:17:36.724Z,94.40
2018-06-01T15:20:04.558Z,94.60
2018-06-01T15:22:32.356Z,94.80
2018-06-01T15:25:00.180Z,94.70
2018-06-01T15:27:28.052Z,94.60
2018-06-01T15:29:55.854Z,93.40
2018-06-01T15:32:23.661Z,92.20
2018-06-01T15:34:52.233Z,92.70
2018-06-01T15:37:20.785Z,92.70
2018-06-01T15:39:48.592Z,92.70
2018-06-01T15:42:17.188Z,93.10
2018-06-01T15:44:45.141Z,93.00
2018-06-01T15:47:12.980Z,92.70
2018-06-01T15:49:40.801Z,92.80
2018-06-01T15:52:08.582Z,92.60
2018-06-01T15:54:36.357Z,92.70
2018-06-01T15:57:04.203Z,92.50
2018-06-01T15:59:32.004Z,92.80
2018-06-01T16:01:59.793Z,92.70
2018-06-01T16:04:28.384Z,93.20
2018-06-01T16:06:56.961Z,93.30
2018-06-01T16:09:25.553Z,93.70
2018-06-01T16:11:53.387Z,93.70
2018-06-01T16:14:21.177Z,93.30
2018-06-01T16:16:49.761Z,93.30
2018-06-01T16:19:18.687Z,93.60
2018-06-01T16:21:46.511Z,93.60
2018-06-01T16:24:14.314Z,94.10
2018-06-01T16:26:42.136Z,94.10
2018-06-01T16:29:10.705Z,94.50
2018-06-01T16:31:38.498Z,94.50
2018-06-01T16:34:07.059Z,94.70
2018-06-01T16:36:34.856Z,94.70
2018-06-01T16:39:02.671Z,94.60
2018-06-01T16:41:30.497Z,94.30
2018-06-01T16:43:58.298Z,94.10
2018-06-01T16:46:26.081Z,94.20
2018-06-01T16:48:53.921Z,94.20
2018-06-01T16:51:21.718Z,93.90
2018-06-01T16:53:50.288Z,93.10
2018-06-01T16:56:18.135Z,93.00
2018-06-01T16:58:45.993Z,93.20
2018-06-01T17:01:13.798Z,93.60
2018-06-01T17:03:42.464Z,93.50
2018-06-01T17:06:10.434Z,93.50
2018-06-01T17:08:38.200Z,94.20
2018-06-01T17:11:06.021Z,94.70
2018-06-01T17:13:33.835Z,95.00
2018-06-01T17:16:01.662Z,95.10
2018-06-01T17:18:29.484Z,95.30
2018-06-01T17:20:58.055Z,95.80
2018-06-01T17:23:25.856Z,95.80
2018-06-01T17:25:53.712Z,96.00
2018-06-01T17:28:21.512Z,96.30
2018-06-01T17:30:49.321Z,96.40
2018-06-01T17:33:18.063Z,96.20
2018-06-01T17:35:45.884Z,96.20
2018-06-01T17:38:14.461Z,96.30
2018-06-01T17:40:43.057Z,96.80
2018-06-01T17:43:10.847Z,96.50
2018-06-01T17:45:38.653Z,97.70
2018-06-01T17:48:06.511Z,97.50
2018-06-01T17:50:34.331Z,98.00
2018-06-01T17:53:02.132Z,99.90
2018-06-01T17:55:30.025Z,99.00
2018-06-01T17:57:58.798Z,99.40
2018-06-01T18:00:26.632Z,99.40
2018-06-01T18:02:54.497Z,98.90
2018-06-01T18:05:22.541Z,99.90
2018-06-01T18:07:51.141Z,98.80
2018-06-01T18:10:19.002Z,98.70
2018-06-01T18:12:46.893Z,99.60
2018-06-01T18:15:14.727Z,99.90
2018-06-01T18:17:42.557Z,99.50
2018-06-01T18:20:11.111Z,99.50
2018-06-01T18:22:38.968Z,99.50
2018-06-01T18:25:06.800Z,99.70
2018-06-01T18:27:35.405Z,99.80
2018-06-01T18:30:03.319Z,99.90
2018-06-01T18:32:31.308Z,99.90
2018-06-01T18:34:59.204Z,99.90
2018-06-01T18:37:27.167Z,99.90
2018-06-01T18:39:55.012Z,99.90
2018-06-01T18:42:23.633Z,99.90
2018-06-01T18:44:51.832Z,99.90
2018-06-01T18:47:19.620Z,99.90
2018-06-01T18:49:47.434Z,99.90
2018-06-01T18:52:15.260Z,99.90
2018-06-01T18:54:43.877Z,99.90
2018-06-01T18:57:11.800Z,99.90
2018-06-01T18:59:40.538Z,99.90
2018-06-01T19:02:08.461Z,99.90
2018-06-01T19:04:37.069Z,99.90
2018-06-01T19:07:04.883Z,99.90
2018-06-01T19:09:32.717Z,99.90
2018-06-01T19:12:00.559Z,99.90
2018-06-01T19:14:29.124Z,99.90
2018-06-01T19:16:56.915Z,99.90
2018-06-01T19:19:25.485Z,99.90
2018-06-01T19:21:54.049Z,99.90
2018-06-01T19:24:21.884Z,99.90
2018-06-01T19:26:49.709Z,99.90
2018-06-01T19:29:17.510Z,99.90
2018-06-01T19:31:45.301Z,99.90
2018-06-01T19:34:13.286Z,99.90
2018-06-01T19:36:41.091Z,99.90
2018-06-01T19:39:08.888Z,99.90
2018-06-01T19:41:36.743Z,99.90
2018-06-01T19:44:04.564Z,99.90
2018-06-01T19:46:33.555Z,99.90
2018-06-01T19:49:02.169Z,99.90
2018-06-01T19:51:30.810Z,99.90
2018-06-01T19:53:59.391Z,99.90
2018-06-01T19:56:27.352Z,99.90
2018-06-01T19:58:55.979Z,99.90
2018-06-01T20:01:23.796Z,99.90
2018-06-01T20:03:51.614Z,99.90
2018-06-01T20:06:19.410Z,99.90
2018-06-01T20:08:47.200Z,99.90
2018-06-01T20:11:15.820Z,99.90
2018-06-01T20:13:43.632Z,99.90
2018-06-01T20:16:11.462Z,99.90
2018-06-01T20:18:39.397Z,99.90
2018-06-01T20:21:07.340Z,99.90
2018-06-01T20:23:35.176Z,99.90
2018-06-01T20:26:03.021Z,99.90
2018-06-01T20:28:30.891Z,99.90
2018-06-01T20:30:58.798Z,99.90
2018-06-01T20:33:26.685Z,99.90
2018-06-01T20:35:55.254Z,99.90
2018-06-01T20:38:23.961Z,99.90
2018-06-01T20:40:53.569Z,97.40
2018-06-01T20:43:22.194Z,97.70
2018-06-01T20:45:50.169Z,97.70
2018-06-01T20:48:18.107Z,97.90
2018-06-01T20:50:46.040Z,98.00
2018-06-01T20:53:14.639Z,98.10
2018-06-01T20:55:43.235Z,98.10
2018-06-01T20:58:11.789Z,98.20
2018-06-01T21:00:40.409Z,98.20
2018-06-01T21:03:08.229Z,98.20
2018-06-01T21:05:36.031Z,98.20
2018-06-01T21:08:04.625Z,98.00
2018-06-01T21:10:32.460Z,98.00
2018-06-01T21:13:01.080Z,98.20
2018-06-01T21:15:29.097Z,97.80
2018-06-01T21:17:56.904Z,97.80
2018-06-01T21:20:25.482Z,97.60
2018-06-01T21:22:54.072Z,97.50
2018-06-01T21:25:22.772Z,97.60
2018-06-01T21:27:50.676Z,97.60
2018-06-01T21:30:18.511Z,97.70
2018-06-01T21:32:46.519Z,97.60
2018-06-01T21:35:14.339Z,97.90
2018-06-01T21:37:42.170Z,98.20
2018-06-01T21:40:10.753Z,98.00
2018-06-01T21:42:39.758Z,98.10
2018-06-01T21:45:07.613Z,98.10
2018-06-01T21:47:36.389Z,98.00
2018-06-01T21:50:04.261Z,98.00
2018-06-01T21:52:32.934Z,98.70
2018-06-01T21:55:00.768Z,98.70
2018-06-01T21:57:28.566Z,98.90
2018-06-01T21:59:56.438Z,98.90
2018-06-01T22:02:24.246Z,98.60
2018-06-01T22:04:52.028Z,98.60
2018-06-01T22:07:19.833Z,98.80
2018-06-01T22:09:47.788Z,98.90
2018-06-01T22:12:15.650Z,98.80
2018-06-01T22:14:43.468Z,98.50
2018-06-01T22:17:12.067Z,98.50
2018-06-01T22:19:39.890Z,98.50
2018-06-01T22:22:07.775Z,98.50
2018-06-01T22:24:36.373Z,98.20
2018-06-01T22:27:04.204Z,98.20
2018-06-01T22:29:32.821Z,98.10
2018-06-01T22:32:00.606Z,98.10
2018-06-01T22:34:29.192Z,97.60
2018-06-01T22:36:57.015Z,97.60
2018-06-01T22:39:25.571Z,97.20
2018-06-01T22:41:53.393Z,96.90
2018-06-01T22:44:21.254Z,96.70
2018-06-01T22:46:49.115Z,96.80
2018-06-01T22:49:16.988Z,97.30
2018-06-01T22:51:45.545Z,97.90
2018-06-01T22:54:14.099Z,97.90
2018-06-01T22:56:42.252Z,97.90
2018-06-01T22:59:10.037Z,98.20
2018-06-01T23:01:37.886Z,98.30
2018-06-01T23:04:05.729Z,98.20
2018-06-01T23:06:33.569Z,98.20
2018-06-01T23:09:02.125Z,97.90
2018-06-01T23:11:29.978Z,97.90
2018-06-01T23:13:57.774Z,97.80
2018-06-01T23:16:26.348Z,97.50
2018-06-01T23:18:54.946Z,97.30
2018-06-01T23:21:23.513Z,97.00
2018-06-01T23:23:51.400Z,97.00
2018-06-01T23:26:19.721Z,97.10
2018-06-01T23:28:47.560Z,96.90
2018-06-01T23:31:15.463Z,96.70
2018-06-01T23:33:43.312Z,96.50
2018-06-01T23:36:11.110Z,96.20
2018-06-01T23:38:38.908Z,96.00
2018-06-01T23:41:07.507Z,95.60
2018-06-01T23:43:35.295Z,95.60
2018-06-01T23:46:03.144Z,95.40
2018-06-01T23:48:30.974Z,94.60
2018-06-01T23:50:59.548Z,93.20
2018-06-01T23:53:28.147Z,93.30
2018-06-01T23:55:56.712Z,93.30
2018-06-01T23:58:25.333Z,93.30
